Time;durP1;ratioP1;P1;durP2;ratioP2;P2;SDS_P1;SDS_P2;PMS_P1;PMS_P2;Temp;Humidity;BMP_temperature;BMP_pressure;BME280_temperature;BME280_humidity;BME280_pressure;Samples;Min_cycle;Max_cycle;Signal;HPM_P1;HPM_P2
2022/07/09 00:00:23;;;;;;;20.70;5.55;;;;;;;;;;5056120;28;20029;-78
2022/07/09 00:02:49;;;;;;;19.50;5.07;;;;;;;;;;5064573;28;20088;-80
2022/07/09 00:05:15;;;;;;;28.45;5.80;;;;;;;;;;5066272;28;20086;-78
2022/07/09 00:07:41;;;;;;;18.33;5.25;;;;;;;;;;5054559;28;20526;-79
2022/07/09 00:10:07;;;;;;;23.10;5.07;;;;;;;;;;5054621;28;20037;-77
2022/07/09 00:12:33;;;;;;;20.00;5.80;;;;;;;;;;5060898;28;20021;-78
2022/07/09 00:14:59;;;;;;;17.60;5.80;;;;;;;;;;5055310;28;20025;-79
2022/07/09 00:17:29;;;;;;;31.95;5.60;;;;;;;;;;5065690;28;20020;-79
2022/07/09 00:19:56;;;;;;;25.52;5.78;;;;;;;;;;5065561;28;20422;-78
2022/07/09 00:22:22;;;;;;;25.30;5.93;;;;;;;;;;5058573;28;20021;-79
2022/07/09 00:24:47;;;;;;;20.00;5.20;;;;;;;;;;5057728;28;20056;-78
2022/07/09 00:27:14;;;;;;;26.95;5.35;;;;;;;;;;5057525;28;20547;-78
2022/07/09 00:29:39;;;;;;;24.02;5.40;;;;;;;;;;5056730;28;20032;-78
2022/07/09 00:32:06;;;;;;;27.50;5.70;;;;;;;;;;5059084;28;20025;-78
2022/07/09 00:34:33;;;;;;;23.05;5.82;;;;;;;;;;5053786;28;20017;-78
2022/07/09 00:36:59;;;;;;;25.98;6.03;;;;;;;;;;5059640;28;20025;-78
2022/07/09 00:39:25;;;;;;;28.77;5.82;;;;;;;;;;5063396;28;20098;-78
2022/07/09 00:41:51;;;;;;;25.25;5.93;;;;;;;;;;5055541;28;20099;-78
2022/07/09 00:44:17;;;;;;;22.15;6.03;;;;;;;;;;5053261;28;20478;-78
2022/07/09 00:46:43;;;;;;;26.00;6.57;;;;;;;;;;5053301;28;20033;-78
2022/07/09 00:49:09;;;;;;;28.63;5.90;;;;;;;;;;5053897;28;20055;-78
2022/07/09 00:51:35;;;;;;;18.63;5.25;;;;;;;;;;5053296;28;20083;-78
2022/07/09 00:54:02;;;;;;;23.00;6.10;;;;;;;;;;5053830;28;20021;-78
2022/07/09 00:56:31;;;;;;;27.70;6.82;;;;;;;;;;5054404;28;20029;-78
2022/07/09 00:58:57;;;;;;;19.30;5.40;;;;;;;;;;5054753;28;20049;-78
2022/07/09 01:01:23;;;;;;;26.60;6.57;;;;;;;;;;5053529;28;20021;-77
2022/07/09 01:03:49;;;;;;;27.83;5.70;;;;;;;;;;5055638;28;20154;-78
2022/07/09 01:06:15;;;;;;;21.75;5.60;;;;;;;;;;5053349;28;20028;-78
2022/07/09 01:08:41;;;;;;;25.90;6.18;;;;;;;;;;5053675;28;20025;-79
2022/07/09 01:11:07;;;;;;;29.98;6.55;;;;;;;;;;5054279;28;20036;-77
2022/07/09 01:13:33;;;;;;;21.60;5.95;;;;;;;;;;5053515;28;20036;-78
2022/07/09 01:15:59;;;;;;;33.95;6.88;;;;;;;;;;5053029;28;20018;-78
2022/07/09 01:18:25;;;;;;;20.30;6.00;;;;;;;;;;5054069;28;20501;-78
2022/07/09 01:20:52;;;;;;;28.13;6.25;;;;;;;;;;5054380;28;20032;-79
2022/07/09 01:23:18;;;;;;;21.80;6.15;;;;;;;;;;5053480;28;20021;-78
2022/07/09 01:25:44;;;;;;;30.85;7.30;;;;;;;;;;5054413;28;20032;-79
2022/07/09 01:28:10;;;;;;;24.05;6.20;;;;;;;;;;5053136;28;20468;-77
2022/07/09 01:30:37;;;;;;;28.75;6.45;;;;;;;;;;5052632;28;20033;-78
2022/07/09 01:33:04;;;;;;;33.22;7.55;;;;;;;;;;5052894;28;20017;-77
2022/07/09 01:35:30;;;;;;;27.55;6.50;;;;;;;;;;5052721;28;20071;-79
2022/07/09 01:37:56;;;;;;;27.30;6.28;;;;;;;;;;5053192;28;20028;-78
2022/07/09 01:40:22;;;;;;;33.22;7.55;;;;;;;;;;5053167;28;20116;-78
2022/07/09 01:42:48;;;;;;;24.60;6.60;;;;;;;;;;5053050;28;20032;-79
2022/07/09 01:45:14;;;;;;;24.08;6.13;;;;;;;;;;5050986;28;20032;-78
2022/07/09 01:47:40;;;;;;;27.90;7.78;;;;;;;;;;5053242;28;20031;-78
2022/07/09 01:50:07;;;;;;;22.50;5.85;;;;;;;;;;5052056;28;20025;-78
2022/07/09 01:52:33;;;;;;;34.72;6.32;;;;;;;;;;5090766;22;20047;-75
2022/07/09 01:54:59;;;;;;;24.75;5.97;;;;;;;;;;5096343;28;20420;-75
2022/07/09 01:57:25;;;;;;;26.27;7.47;;;;;;;;;;5107895;28;20016;-76
2022/07/09 01:59:51;;;;;;;32.53;7.00;;;;;;;;;;5109467;28;20425;-78
2022/07/09 02:02:18;;;;;;;33.92;7.43;;;;;;;;;;5090755;28;20503;-77
2022/07/09 02:04:45;;;;;;;24.77;6.00;;;;;;;;;;5091803;28;20024;-77
2022/07/09 02:07:11;;;;;;;29.45;6.35;;;;;;;;;;5091984;28;20314;-76
2022/07/09 02:09:37;;;;;;;23.90;5.72;;;;;;;;;;5089037;28;20020;-77
2022/07/09 02:12:04;;;;;;;23.83;6.30;;;;;;;;;;5090720;28;20027;-77
2022/07/09 02:14:31;;;;;;;27.58;6.47;;;;;;;;;;5104140;28;20028;-77
2022/07/09 02:16:57;;;;;;;35.53;7.50;;;;;;;;;;5109838;28;20052;-77
2022/07/09 02:19:23;;;;;;;27.10;6.80;;;;;;;;;;5095698;28;20028;-77
2022/07/09 02:21:49;;;;;;;22.58;6.80;;;;;;;;;;5095961;28;20435;-76
2022/07/09 02:24:15;;;;;;;24.85;6.75;;;;;;;;;;5103375;28;20069;-78
2022/07/09 02:26:41;;;;;;;21.52;5.90;;;;;;;;;;5100330;28;20028;-76
2022/07/09 02:29:07;;;;;;;23.67;6.35;;;;;;;;;;5100494;28;20099;-76
2022/07/09 02:31:33;;;;;;;32.28;6.70;;;;;;;;;;5099584;28;20028;-76
2022/07/09 02:33:59;;;;;;;23.60;6.53;;;;;;;;;;5096803;28;20465;-76
2022/07/09 02:36:25;;;;;;;25.73;6.57;;;;;;;;;;5095623;28;20464;-76
2022/07/09 02:38:51;;;;;;;24.95;6.97;;;;;;;;;;5095422;28;20020;-78
2022/07/09 02:41:17;;;;;;;23.38;6.32;;;;;;;;;;5096513;28;20054;-77
2022/07/09 02:43:43;;;;;;;22.63;5.72;;;;;;;;;;5096051;28;20477;-77
2022/07/09 02:46:10;;;;;;;23.88;6.50;;;;;;;;;;5094612;28;20024;-76
2022/07/09 02:48:36;;;;;;;22.45;6.00;;;;;;;;;;5095125;28;20384;-75
2022/07/09 02:51:03;;;;;;;25.92;6.10;;;;;;;;;;5095413;28;20036;-77
2022/07/09 02:53:29;;;;;;;32.47;6.75;;;;;;;;;;5097351;28;20032;-75
2022/07/09 02:55:55;;;;;;;22.75;6.50;;;;;;;;;;5097209;28;20087;-78
2022/07/09 02:58:21;;;;;;;29.67;7.00;;;;;;;;;;5087432;28;20035;-77
2022/07/09 03:00:47;;;;;;;25.30;6.40;;;;;;;;;;5082041;28;20029;-77
2022/07/09 03:03:13;;;;;;;30.42;6.65;;;;;;;;;;5083058;28;20032;-76
2022/07/09 03:05:39;;;;;;;25.48;6.10;;;;;;;;;;5081832;28;20028;-77
2022/07/09 03:08:05;;;;;;;25.52;6.40;;;;;;;;;;5082415;28;20119;-78
2022/07/09 03:10:31;;;;;;;22.65;6.22;;;;;;;;;;5085971;28;20024;-77
2022/07/09 03:12:57;;;;;;;20.63;5.82;;;;;;;;;;5085019;28;20030;-77
2022/07/09 03:15:23;;;;;;;20.77;5.60;;;;;;;;;;5088722;28;20095;-78
2022/07/09 03:17:49;;;;;;;26.60;6.32;;;;;;;;;;5088495;28;20020;-77
2022/07/09 03:20:15;;;;;;;26.27;6.15;;;;;;;;;;5076020;28;20029;-77
2022/07/09 03:22:41;;;;;;;25.42;6.30;;;;;;;;;;5073612;28;20032;-77
2022/07/09 03:25:08;;;;;;;30.40;6.80;;;;;;;;;;5073826;28;20025;-77
2022/07/09 03:27:34;;;;;;;29.52;6.50;;;;;;;;;;5073464;28;20060;-76
2022/07/09 03:30:00;;;;;;;28.05;6.28;;;;;;;;;;5073870;28;20028;-76
2022/07/09 03:32:26;;;;;;;29.60;6.47;;;;;;;;;;5072632;28;20024;-77
2022/07/09 03:34:52;;;;;;;25.42;6.10;;;;;;;;;;5072499;28;20032;-76
2022/07/09 03:37:18;;;;;;;22.73;5.95;;;;;;;;;;5073821;28;20024;-77
2022/07/09 03:39:44;;;;;;;23.48;5.72;;;;;;;;;;5073784;28;20103;-76
2022/07/09 03:42:11;;;;;;;23.90;6.68;;;;;;;;;;5073574;28;20028;-77
2022/07/09 03:44:37;;;;;;;24.58;6.20;;;;;;;;;;5073396;28;20460;-77
2022/07/09 03:47:03;;;;;;;27.08;6.45;;;;;;;;;;5073324;28;20496;-76
2022/07/09 03:49:29;;;;;;;24.80;6.47;;;;;;;;;;5073382;28;20112;-77
2022/07/09 03:51:55;;;;;;;22.75;6.20;;;;;;;;;;5073222;28;20044;-77
2022/07/09 03:54:21;;;;;;;23.83;6.32;;;;;;;;;;5074997;28;20496;-76
2022/07/09 03:56:47;;;;;;;25.42;6.32;;;;;;;;;;5075079;28;20048;-77
2022/07/09 03:59:13;;;;;;;23.02;6.72;;;;;;;;;;5075350;28;20029;-75
2022/07/09 04:01:39;;;;;;;25.40;6.95;;;;;;;;;;5076352;28;20020;-76
2022/07/09 04:04:05;;;;;;;32.28;6.57;;;;;;;;;;5075999;28;20445;-77
2022/07/09 04:06:31;;;;;;;33.95;6.30;;;;;;;;;;5075016;28;20046;-77
2022/07/09 04:08:57;;;;;;;27.33;7.00;;;;;;;;;;5075957;28;20043;-76
2022/07/09 04:11:23;;;;;;;18.35;6.13;;;;;;;;;;5075137;28;20021;-75
2022/07/09 04:13:49;;;;;;;23.45;6.97;;;;;;;;;;5073809;28;20079;-77
2022/07/09 04:16:15;;;;;;;30.20;7.38;;;;;;;;;;5073085;28;20024;-77
2022/07/09 04:18:43;;;;;;;22.38;6.43;;;;;;;;;;5071471;28;20031;-77
2022/07/09 04:21:10;;;;;;;22.17;6.32;;;;;;;;;;5071388;28;20074;-77
2022/07/09 04:23:36;;;;;;;23.55;6.75;;;;;;;;;;5072656;28;20032;-76
2022/07/09 04:26:02;;;;;;;21.08;6.30;;;;;;;;;;5072965;28;20026;-78
2022/07/09 04:28:28;;;;;;;25.00;6.75;;;;;;;;;;5071770;28;20077;-76
2022/07/09 04:30:56;;;;;;;20.70;6.40;;;;;;;;;;5072910;28;20031;-76
2022/07/09 04:33:22;;;;;;;16.00;5.97;;;;;;;;;;5072981;28;20473;-78
2022/07/09 04:35:48;;;;;;;20.70;6.13;;;;;;;;;;5072789;28;20078;-77
2022/07/09 04:38:14;;;;;;;23.52;5.90;;;;;;;;;;5071924;28;20021;-76
2022/07/09 04:40:40;;;;;;;21.63;5.78;;;;;;;;;;5071291;28;20489;-77
2022/07/09 04:43:07;;;;;;;21.48;5.55;;;;;;;;;;5072563;28;20021;-76
2022/07/09 04:45:34;;;;;;;16.25;5.57;;;;;;;;;;5072883;28;20552;-76
2022/07/09 04:48:01;;;;;;;23.63;6.90;;;;;;;;;;5072819;28;20416;-78
2022/07/09 04:50:27;;;;;;;23.48;6.13;;;;;;;;;;5072747;28;20024;-77
2022/07/09 04:52:53;;;;;;;20.13;6.50;;;;;;;;;;5072582;28;20028;-77
2022/07/09 04:55:19;;;;;;;23.27;7.03;;;;;;;;;;5072855;28;20025;-77
2022/07/09 04:57:45;;;;;;;25.02;6.55;;;;;;;;;;5072966;28;20401;-77
2022/07/09 05:00:12;;;;;;;25.35;6.45;;;;;;;;;;5073215;28;20020;-76
2022/07/09 05:02:38;;;;;;;24.17;6.13;;;;;;;;;;5073476;28;20027;-79
2022/07/09 05:05:06;;;;;;;24.35;6.40;;;;;;;;;;5073575;28;20025;-73
2022/07/09 05:07:32;;;;;;;26.40;8.80;;;;;;;;;;5072460;28;20020;-73
2022/07/09 05:10:01;;;;;;;30.20;6.93;;;;;;;;;;5072539;28;20028;-74
2022/07/09 05:12:27;;;;;;;24.13;6.13;;;;;;;;;;5072941;28;20016;-74
2022/07/09 05:14:52;;;;;;;16.48;5.32;;;;;;;;;;5073046;28;20063;-73
2022/07/09 05:17:18;;;;;;;21.65;5.95;;;;;;;;;;5072957;28;20021;-73
2022/07/09 05:19:44;;;;;;;22.70;6.07;;;;;;;;;;5072296;28;20048;-74
2022/07/09 05:22:10;;;;;;;19.42;5.28;;;;;;;;;;5072692;28;20036;-72
2022/07/09 05:24:36;;;;;;;19.75;5.55;;;;;;;;;;5072496;28;20049;-73
2022/07/09 05:27:03;;;;;;;19.52;5.07;;;;;;;;;;5072229;28;20501;-74
2022/07/09 05:29:29;;;;;;;23.58;5.90;;;;;;;;;;5071574;28;20028;-74
2022/07/09 05:31:57;;;;;;;22.63;5.75;;;;;;;;;;5072936;28;20021;-75
2022/07/09 05:34:23;;;;;;;14.93;4.63;;;;;;;;;;5072876;28;20070;-74
2022/07/09 05:36:51;;;;;;;21.65;5.25;;;;;;;;;;5076751;28;20027;-76
2022/07/09 05:39:17;;;;;;;14.85;5.10;;;;;;;;;;5080095;28;20012;-77
2022/07/09 05:41:43;;;;;;;15.05;5.20;;;;;;;;;;5081007;28;20035;-75
2022/07/09 05:44:09;;;;;;;17.23;4.82;;;;;;;;;;5079288;28;20384;-76
2022/07/09 05:46:35;;;;;;;15.27;4.75;;;;;;;;;;5079686;28;20079;-76
2022/07/09 05:49:01;;;;;;;21.58;5.25;;;;;;;;;;5082415;28;20025;-75
2022/07/09 05:51:27;;;;;;;24.20;5.30;;;;;;;;;;5086184;28;20074;-77
2022/07/09 05:53:53;;;;;;;16.05;5.43;;;;;;;;;;5085580;28;20050;-75
2022/07/09 05:56:20;;;;;;;15.65;4.50;;;;;;;;;;5092384;28;20035;-76
2022/07/09 05:58:46;;;;;;;20.67;5.28;;;;;;;;;;5094859;28;20041;-75
2022/07/09 06:01:13;;;;;;;15.70;4.95;;;;;;;;;;5079511;28;20035;-76
2022/07/09 06:03:39;;;;;;;20.55;5.47;;;;;;;;;;5078114;28;20025;-76
2022/07/09 06:06:05;;;;;;;24.98;5.43;;;;;;;;;;5084745;28;20029;-78
2022/07/09 06:08:33;;;;;;;21.55;5.30;;;;;;;;;;5082830;28;20039;-73
2022/07/09 06:10:59;;;;;;;14.35;4.60;;;;;;;;;;5084641;28;20048;-73
2022/07/09 06:13:25;;;;;;;17.20;4.55;;;;;;;;;;5090931;28;20496;-76
2022/07/09 06:15:51;;;;;;;16.42;4.95;;;;;;;;;;5092587;28;20024;-77
2022/07/09 06:18:17;;;;;;;17.40;5.00;;;;;;;;;;5090116;28;20024;-77
2022/07/09 06:20:44;;;;;;;18.02;5.20;;;;;;;;;;5094303;28;20090;-74
2022/07/09 06:23:10;;;;;;;22.33;5.07;;;;;;;;;;5092449;28;20028;-74
2022/07/09 06:25:37;;;;;;;16.65;4.68;;;;;;;;;;5092324;28;20025;-75
2022/07/09 06:28:03;;;;;;;17.13;5.05;;;;;;;;;;5092507;28;20040;-76
2022/07/09 06:30:29;;;;;;;13.00;4.78;;;;;;;;;;5085827;28;20039;-75
2022/07/09 06:32:55;;;;;;;15.32;4.47;;;;;;;;;;5085692;28;20063;-76
2022/07/09 06:35:21;;;;;;;19.08;4.88;;;;;;;;;;5099415;28;20031;-76
2022/07/09 06:37:47;;;;;;;13.70;4.78;;;;;;;;;;5097786;28;20480;-76
2022/07/09 06:40:13;;;;;;;18.75;4.97;;;;;;;;;;5095362;28;20017;-76
2022/07/09 06:42:39;;;;;;;17.20;4.95;;;;;;;;;;5096083;28;20032;-76
2022/07/09 06:45:06;;;;;;;18.70;5.35;;;;;;;;;;5095245;28;20039;-76
2022/07/09 06:47:32;;;;;;;21.10;4.70;;;;;;;;;;5094800;28;20267;-76
2022/07/09 06:49:58;;;;;;;19.60;4.30;;;;;;;;;;5095498;28;20028;-75
2022/07/09 06:52:24;;;;;;;11.57;4.18;;;;;;;;;;5094089;28;20509;-75
2022/07/09 06:54:50;;;;;;;11.05;4.43;;;;;;;;;;5095667;28;20020;-76
2022/07/09 06:57:16;;;;;;;11.15;3.75;;;;;;;;;;5099522;28;20043;-76
2022/07/09 06:59:43;;;;;;;14.75;3.72;;;;;;;;;;5107149;28;20050;-75
2022/07/09 07:02:09;;;;;;;13.82;3.45;;;;;;;;;;5094025;28;20039;-75
2022/07/09 07:04:34;;;;;;;13.85;3.88;;;;;;;;;;5094723;28;20032;-77
2022/07/09 07:07:00;;;;;;;12.38;3.40;;;;;;;;;;5094291;28;20043;-76
2022/07/09 07:09:26;;;;;;;9.52;3.25;;;;;;;;;;5094398;28;20198;-75
2022/07/09 07:11:52;;;;;;;15.25;3.25;;;;;;;;;;5094183;28;20031;-77
2022/07/09 07:14:18;;;;;;;17.48;4.03;;;;;;;;;;5094061;28;20487;-77
2022/07/09 07:16:45;;;;;;;11.30;3.10;;;;;;;;;;5094757;28;20543;-77
2022/07/09 07:19:11;;;;;;;10.55;3.42;;;;;;;;;;5095572;28;20020;-77
2022/07/09 07:21:40;;;;;;;10.52;3.60;;;;;;;;;;5092852;28;20034;-77
2022/07/09 07:24:07;;;;;;;10.77;3.10;;;;;;;;;;5094879;28;20383;-79
2022/07/09 07:26:33;;;;;;;13.40;3.60;;;;;;;;;;5096230;28;20059;-79
2022/07/09 07:28:59;;;;;;;11.60;2.92;;;;;;;;;;5098596;28;20028;-77
2022/07/09 07:31:25;;;;;;;8.13;2.95;;;;;;;;;;5094542;28;20141;-76
2022/07/09 07:33:52;;;;;;;9.40;3.03;;;;;;;;;;5093802;28;20480;-76
2022/07/09 07:36:18;;;;;;;13.38;3.33;;;;;;;;;;5093822;28;20036;-77
2022/07/09 07:38:45;;;;;;;8.70;2.67;;;;;;;;;;5094302;28;20024;-75
2022/07/09 07:41:11;;;;;;;11.35;2.80;;;;;;;;;;5094889;28;20027;-76
2022/07/09 07:43:37;;;;;;;10.40;3.13;;;;;;;;;;5093866;28;20047;-75
2022/07/09 07:46:03;;;;;;;10.50;2.88;;;;;;;;;;5095047;28;20028;-76
2022/07/09 07:48:30;;;;;;;12.82;3.03;;;;;;;;;;5094662;28;20028;-76
2022/07/09 07:50:56;;;;;;;10.02;2.85;;;;;;;;;;5094328;28;20027;-76
2022/07/09 07:53:22;;;;;;;13.35;3.15;;;;;;;;;;5093478;28;20031;-76
2022/07/09 07:55:48;;;;;;;8.45;3.00;;;;;;;;;;5093615;28;20016;-75
2022/07/09 07:58:14;;;;;;;7.05;2.40;;;;;;;;;;5094183;28;20460;-75
2022/07/09 08:00:40;;;;;;;14.65;2.88;;;;;;;;;;5094218;28;20036;-75
2022/07/09 08:03:06;;;;;;;11.82;2.80;;;;;;;;;;5093676;28;20510;-75
2022/07/09 08:05:32;;;;;;;16.58;3.58;;;;;;;;;;5094538;28;20051;-76
2022/07/09 08:07:58;;;;;;;9.55;2.97;;;;;;;;;;5096322;28;20045;-76
2022/07/09 08:10:25;;;;;;;15.10;5.10;;;;;;;;;;5101300;28;20074;-76
2022/07/09 08:12:51;;;;;;;16.75;3.05;;;;;;;;;;5100773;28;20052;-75
2022/07/09 08:15:17;;;;;;;10.05;2.80;;;;;;;;;;5104786;28;20032;-75
2022/07/09 08:17:44;;;;;;;19.42;4.45;;;;;;;;;;5098494;28;20070;-75
2022/07/09 08:20:10;;;;;;;12.18;2.58;;;;;;;;;;5102996;28;20042;-75
2022/07/09 08:22:36;;;;;;;9.40;2.88;;;;;;;;;;5099989;28;20091;-76
2022/07/09 08:25:03;;;;;;;7.25;2.25;;;;;;;;;;5107946;28;20039;-75
2022/07/09 08:27:29;;;;;;;7.55;2.03;;;;;;;;;;5113086;28;20012;-74
2022/07/09 08:29:54;;;;;;;11.20;3.00;;;;;;;;;;5111590;28;20115;-74
2022/07/09 08:32:20;;;;;;;5.10;1.50;;;;;;;;;;5113309;28;20023;-75
2022/07/09 08:34:46;;;;;;;7.90;2.17;;;;;;;;;;5113400;28;20043;-76
2022/07/09 08:37:12;;;;;;;11.43;2.10;;;;;;;;;;5098041;28;20024;-77
2022/07/09 08:39:38;;;;;;;9.57;2.10;;;;;;;;;;5094261;28;20107;-76
2022/07/09 08:42:08;;;;;;;15.63;5.47;;;;;;;;;;5093681;28;20028;-76
2022/07/09 08:44:35;;;;;;;6.68;1.90;;;;;;;;;;5093250;28;20039;-76
2022/07/09 08:47:01;;;;;;;8.75;1.95;;;;;;;;;;5093950;28;20034;-77
2022/07/09 08:49:28;;;;;;;7.55;1.80;;;;;;;;;;5094033;28;20028;-75
2022/07/09 08:51:56;;;;;;;6.65;1.50;;;;;;;;;;5095237;28;20084;-76
2022/07/09 08:54:23;;;;;;;12.05;2.35;;;;;;;;;;5093207;28;20023;-75
2022/07/09 08:56:50;;;;;;;11.15;1.52;;;;;;;;;;5093402;28;20039;-75
2022/07/09 08:59:16;;;;;;;11.38;2.28;;;;;;;;;;5093716;28;20452;-75
2022/07/09 09:01:42;;;;;;;10.30;2.10;;;;;;;;;;5092638;28;20023;-76
2022/07/09 09:04:08;;;;;;;6.07;1.70;;;;;;;;;;5093519;28;20016;-76
2022/07/09 09:06:43;;;;;;;14.50;3.35;;;;;;;;;;5092394;28;20047;-76
2022/07/09 09:09:10;;;;;;;;;;;;;;;;;;5093617;28;20147;-76
2022/07/09 09:11:36;;;;;;;9.98;2.25;;;;;;;;;;5092638;28;19911;-76
2022/07/09 09:14:03;;;;;;;6.00;1.50;;;;;;;;;;5093640;28;20034;-76
2022/07/09 09:16:29;;;;;;;10.52;2.30;;;;;;;;;;5093058;28;20032;-75
2022/07/09 09:18:56;;;;;;;14.55;3.17;;;;;;;;;;5093823;28;20035;-76
2022/07/09 09:21:23;;;;;;;15.75;3.88;;;;;;;;;;5092996;28;20039;-75
2022/07/09 09:23:53;;;;;;;7.15;1.90;;;;;;;;;;5094332;28;20548;-75
2022/07/09 09:26:19;;;;;;;17.83;5.00;;;;;;;;;;5095912;28;20357;-76
2022/07/09 09:28:48;;;;;;;12.95;2.53;;;;;;;;;;5097275;28;20024;-76
2022/07/09 09:31:21;;;;;;;6.90;1.63;;;;;;;;;;5097214;28;20145;-76
2022/07/09 09:33:47;;;;;;;7.05;2.42;;;;;;;;;;5098288;28;20024;-76
2022/07/09 09:36:26;;;;;;;10.63;2.67;;;;;;;;;;5102504;28;20027;-76
2022/07/09 09:38:52;;;;;;;12.25;1.75;;;;;;;;;;5113685;28;20023;-76
2022/07/09 09:41:22;;;;;;;9.18;3.13;;;;;;;;;;5120080;27;20055;-77
2022/07/09 09:43:49;;;;;;;12.50;2.15;;;;;;;;;;5123943;28;20020;-77
2022/07/09 09:46:18;;;;;;;9.55;1.88;;;;;;;;;;5125879;28;20043;-77
2022/07/09 09:48:44;;;;;;;9.48;2.03;;;;;;;;;;5124456;28;20038;-76
2022/07/09 09:51:11;;;;;;;7.90;1.55;;;;;;;;;;5121018;28;20035;-77
2022/07/09 09:53:38;;;;;;;6.35;1.63;;;;;;;;;;5120247;27;20027;-78
2022/07/09 09:56:04;;;;;;;6.35;1.90;;;;;;;;;;5128901;28;20016;-77
2022/07/09 09:58:30;;;;;;;8.18;1.65;;;;;;;;;;5137136;28;20027;-78
2022/07/09 10:00:56;;;;;;;6.95;1.70;;;;;;;;;;5122970;28;20027;-78
2022/07/09 10:03:22;;;;;;;12.20;2.35;;;;;;;;;;5119065;27;20034;-78
2022/07/09 10:05:50;;;;;;;8.93;1.80;;;;;;;;;;5119381;28;20035;-78
2022/07/09 10:08:16;;;;;;;11.57;2.53;;;;;;;;;;5128002;28;20051;-78
2022/07/09 10:10:50;;;;;;;4.78;1.98;;;;;;;;;;5126125;28;20462;-77
2022/07/09 10:13:22;;;;;;;8.35;2.33;;;;;;;;;;5117636;28;20034;-78
2022/07/09 10:15:49;;;;;;;6.45;1.52;;;;;;;;;;5117057;28;20031;-76
2022/07/09 10:18:18;;;;;;;8.30;1.80;;;;;;;;;;5117647;28;20030;-78
2022/07/09 10:20:44;;;;;;;10.38;1.90;;;;;;;;;;5119733;28;20051;-76
2022/07/09 10:23:21;;;;;;;8.50;2.80;;;;;;;;;;5120642;28;20103;-77
2022/07/09 10:25:47;;;;;;;10.65;1.88;;;;;;;;;;5121653;28;20043;-77
2022/07/09 10:28:17;;;;;;;7.50;1.27;;;;;;;;;;5118985;28;20020;-77
2022/07/09 10:30:43;;;;;;;8.38;1.63;;;;;;;;;;5121718;28;20118;-75
2022/07/09 10:33:10;;;;;;;5.80;1.30;;;;;;;;;;5119828;28;20044;-76
2022/07/09 10:35:40;;;;;;;7.78;2.30;;;;;;;;;;5117452;28;20024;-77
2022/07/09 10:38:07;;;;;;;7.57;1.60;;;;;;;;;;5117495;28;20019;-75
2022/07/09 10:40:43;;;;;;;5.68;1.88;;;;;;;;;;5116744;28;20027;-76
2022/07/09 10:43:09;;;;;;;10.23;2.30;;;;;;;;;;5117141;28;20051;-77
2022/07/09 10:45:37;;;;;;;8.23;1.95;;;;;;;;;;5116686;28;20117;-76
2022/07/09 10:48:04;;;;;;;7.00;1.75;;;;;;;;;;5117146;28;20023;-77
2022/07/09 10:50:31;;;;;;;5.95;1.65;;;;;;;;;;5116676;28;20058;-78
2022/07/09 10:52:59;;;;;;;11.45;1.75;;;;;;;;;;5116848;27;20114;-77
2022/07/09 10:55:26;;;;;;;10.10;1.80;;;;;;;;;;5117857;28;20043;-76
2022/07/09 10:57:52;;;;;;;4.53;1.60;;;;;;;;;;5119626;28;20032;-77
2022/07/09 11:00:26;;;;;;;10.32;1.90;;;;;;;;;;5129207;27;20016;-75
2022/07/09 11:02:53;;;;;;;11.48;2.40;;;;;;;;;;5140035;27;20023;-76
2022/07/09 11:05:19;;;;;;;7.47;2.53;;;;;;;;;;5139256;27;20027;-75
2022/07/09 11:07:54;;;;;;;7.35;1.40;;;;;;;;;;5140066;27;20015;-75
2022/07/09 11:10:20;;;;;;;11.43;1.95;;;;;;;;;;5136054;27;20080;-77
2022/07/09 11:12:49;;;;;;;8.27;3.72;;;;;;;;;;5128667;28;20036;-76
2022/07/09 11:15:19;;;;;;;12.45;3.13;;;;;;;;;;5118171;28;20019;-76
2022/07/09 11:17:54;;;;;;;3.58;1.67;;;;;;;;;;5119269;28;20051;-77
2022/07/09 11:20:20;;;;;;;8.70;1.38;;;;;;;;;;5113597;28;20048;-76
2022/07/09 11:22:48;;;;;;;4.13;1.38;;;;;;;;;;5106367;28;20032;-77
2022/07/09 11:25:14;;;;;;;6.93;1.38;;;;;;;;;;5104578;28;20028;-77
2022/07/09 11:27:41;;;;;;;9.43;1.20;;;;;;;;;;5094163;28;20024;-77
2022/07/09 11:30:07;;;;;;;7.10;1.67;;;;;;;;;;5094875;28;20103;-77
2022/07/09 11:32:33;;;;;;;6.85;1.60;;;;;;;;;;5093286;28;20024;-77
2022/07/09 11:34:59;;;;;;;9.52;1.45;;;;;;;;;;5093514;28;20123;-77
2022/07/09 11:37:25;;;;;;;9.40;1.20;;;;;;;;;;5093396;28;20099;-76
2022/07/09 11:39:52;;;;;;;8.70;1.88;;;;;;;;;;5096038;28;20074;-76
2022/07/09 11:42:20;;;;;;;5.88;1.08;;;;;;;;;;5097122;28;20428;-77
2022/07/09 11:44:56;;;;;;;10.13;1.90;;;;;;;;;;5094649;28;20016;-76
2022/07/09 11:47:32;;;;;;;2.20;1.17;;;;;;;;;;5092544;28;20020;-76
2022/07/09 11:50:05;;;;;;;6.13;1.60;;;;;;;;;;5094028;28;20024;-79
2022/07/09 11:52:32;;;;;;;6.22;1.38;;;;;;;;;;5093203;28;20031;-76
2022/07/09 11:55:00;;;;;;;2.90;0.90;;;;;;;;;;5093771;28;20111;-76
2022/07/09 11:57:26;;;;;;;5.85;1.23;;;;;;;;;;5092664;28;20016;-76
2022/07/09 11:59:52;;;;;;;5.53;1.50;;;;;;;;;;5093754;28;20024;-77
2022/07/09 12:02:25;;;;;;;3.70;1.15;;;;;;;;;;5093876;28;20407;-77
2022/07/09 12:04:51;;;;;;;7.07;1.33;;;;;;;;;;5093475;28;20024;-75
2022/07/09 12:07:17;;;;;;;10.90;1.52;;;;;;;;;;5092119;28;20064;-77
2022/07/09 12:09:43;;;;;;;11.88;1.67;;;;;;;;;;5092364;28;20055;-76
2022/07/09 12:12:09;;;;;;;9.38;1.80;;;;;;;;;;5090996;28;20024;-76
2022/07/09 12:14:35;;;;;;;6.00;1.80;;;;;;;;;;5092561;28;20012;-76
2022/07/09 12:17:01;;;;;;;10.02;1.38;;;;;;;;;;5092462;28;20028;-75
2022/07/09 12:19:27;;;;;;;19.30;8.95;;;;;;;;;;5093875;28;20064;-75
2022/07/09 12:21:53;;;;;;;12.25;2.95;;;;;;;;;;5092962;28;20106;-76
2022/07/09 12:24:19;;;;;;;28.20;10.30;;;;;;;;;;5092989;28;20027;-75
2022/07/09 12:26:45;;;;;;;13.57;2.90;;;;;;;;;;5094683;28;20381;-76
2022/07/09 12:29:11;;;;;;;9.88;1.75;;;;;;;;;;5096330;28;20021;-75
2022/07/09 12:31:37;;;;;;;12.38;1.92;;;;;;;;;;5094266;28;20047;-76
2022/07/09 12:34:04;;;;;;;10.07;2.20;;;;;;;;;;5094116;28;20048;-76
2022/07/09 12:36:31;;;;;;;15.13;2.22;;;;;;;;;;5095172;28;20051;-76
2022/07/09 12:38:57;;;;;;;12.20;2.50;;;;;;;;;;5094320;28;20023;-76
2022/07/09 12:41:23;;;;;;;12.10;2.40;;;;;;;;;;5093511;28;20035;-76
2022/07/09 12:43:49;;;;;;;10.75;2.30;;;;;;;;;;5091981;28;20028;-76
2022/07/09 12:46:15;;;;;;;9.90;2.22;;;;;;;;;;5093036;28;20027;-76
2022/07/09 12:48:41;;;;;;;12.65;2.72;;;;;;;;;;5093515;28;20051;-75
2022/07/09 12:51:07;;;;;;;9.38;2.10;;;;;;;;;;5094528;28;20472;-76
2022/07/09 12:53:33;;;;;;;8.77;2.10;;;;;;;;;;5102156;28;20196;-76
2022/07/09 12:55:59;;;;;;;12.60;1.70;;;;;;;;;;5099705;28;20373;-77
2022/07/09 12:58:25;;;;;;;7.57;1.63;;;;;;;;;;5094844;28;20073;-77
2022/07/09 13:00:50;;;;;;;12.23;3.90;;;;;;;;;;5093749;28;20111;-76
2022/07/09 13:03:16;;;;;;;4.13;1.52;;;;;;;;;;5094474;28;20028;-77
2022/07/09 13:05:42;;;;;;;13.48;2.17;;;;;;;;;;5095006;28;20070;-76
2022/07/09 13:08:08;;;;;;;7.30;1.50;;;;;;;;;;5082617;28;20528;-77
2022/07/09 13:10:34;;;;;;;8.93;1.80;;;;;;;;;;5073458;28;20024;-75
2022/07/09 13:13:00;;;;;;;6.90;1.42;;;;;;;;;;5073502;28;20436;-76
2022/07/09 13:15:26;;;;;;;12.75;1.90;;;;;;;;;;5073339;28;20033;-77
2022/07/09 13:17:52;;;;;;;7.47;1.80;;;;;;;;;;5075849;28;20481;-77
2022/07/09 13:20:18;;;;;;;7.32;1.52;;;;;;;;;;5075471;28;20740;-77
2022/07/09 13:22:44;;;;;;;5.57;1.40;;;;;;;;;;5075088;28;20080;-78
2022/07/09 13:25:10;;;;;;;6.72;1.67;;;;;;;;;;5074164;28;20033;-77
2022/07/09 13:27:36;;;;;;;9.68;1.70;;;;;;;;;;5072675;28;20031;-75
2022/07/09 13:30:02;;;;;;;14.52;2.10;;;;;;;;;;5073678;28;20031;-76
2022/07/09 13:32:28;;;;;;;9.57;1.52;;;;;;;;;;5072495;28;20135;-75
2022/07/09 13:34:54;;;;;;;6.88;1.50;;;;;;;;;;5074140;28;20024;-76
2022/07/09 13:37:20;;;;;;;5.20;1.50;;;;;;;;;;5088971;28;20064;-75
2022/07/09 13:39:46;;;;;;;6.82;1.50;;;;;;;;;;5093109;28;20033;-74
2022/07/09 13:42:12;;;;;;;4.65;1.30;;;;;;;;;;5093873;28;20036;-74
2022/07/09 13:44:39;;;;;;;8.80;1.65;;;;;;;;;;5092416;28;20044;-75
2022/07/09 13:47:05;;;;;;;8.27;1.50;;;;;;;;;;5094128;28;20084;-76
2022/07/09 13:49:30;;;;;;;12.77;2.40;;;;;;;;;;5091465;28;20036;-75
2022/07/09 13:52:00;;;;;;;8.00;1.85;;;;;;;;;;5072377;28;20473;-75
2022/07/09 13:54:26;;;;;;;16.05;2.95;;;;;;;;;;5080208;28;20092;-76
2022/07/09 13:56:52;;;;;;;13.70;1.67;;;;;;;;;;5087199;23;20515;-77
2022/07/09 13:59:17;;;;;;;11.18;1.80;;;;;;;;;;5038393;28;20029;-76
2022/07/09 14:01:43;;;;;;;9.88;1.70;;;;;;;;;;5058843;28;20085;-76
2022/07/09 14:04:09;;;;;;;12.63;2.42;;;;;;;;;;5054688;28;20025;-76
2022/07/09 14:06:37;;;;;;;11.18;1.85;;;;;;;;;;5051314;28;20405;-76
2022/07/09 14:09:03;;;;;;;9.02;1.70;;;;;;;;;;5050760;28;20021;-77
2022/07/09 14:11:29;;;;;;;8.23;1.52;;;;;;;;;;5054110;28;20048;-77
2022/07/09 14:13:56;;;;;;;10.57;1.50;;;;;;;;;;5055687;28;20085;-78
2022/07/09 14:16:22;;;;;;;12.57;1.60;;;;;;;;;;5055477;28;20028;-77
2022/07/09 14:18:48;;;;;;;8.07;1.95;;;;;;;;;;5055137;28;20025;-76
2022/07/09 14:21:15;;;;;;;10.30;1.80;;;;;;;;;;5055162;28;20520;-76
2022/07/09 14:23:41;;;;;;;10.85;2.78;;;;;;;;;;5055291;28;20029;-77
2022/07/09 14:26:07;;;;;;;16.85;1.90;;;;;;;;;;5054052;28;20087;-77
2022/07/09 14:28:33;;;;;;;11.18;1.98;;;;;;;;;;5055701;28;20029;-77